Elkhurst, Missouri
Current Conditions -  °F | °C
As of 3:54 PM on Sunday 21 Dec 2014 (Local Time) from KCOU Reporting Station
Overcast Overcast  
Wind Chill: 36°   Ceiling: 1500
Heat Index: 43°   Visibility: 10mi
Dew Point: 38°   Wind: 13mph
Humidity: 82%   Direction: 160°SSE
Pressure: 29.93"   Gusts: NA
Location:  38.8994°N, 92.2391°W
Report Text: KCOU 212154Z 16011KT 10SM OVC015 06/03 A2993 RMK AO2 SLP140 T00610033
Loading
Personal Weather Stations






























Interactive Weather Map New forecast layout! Learn more

10-Day Weather Forecast

Advertisements
Track Severe Weather on mobile